Time;durP1;ratioP1;P1;durP2;ratioP2;P2;SDS_P1;SDS_P2;PMS_P1;PMS_P2;Temp;Humidity;BMP_temperature;BMP_pressure;BME280_temperature;BME280_humidity;BME280_pressure;Samples;Min_cycle;Max_cycle;Signal;HPM_P1;HPM_P2
2021/07/18 00:01:57;;;;;;;30.67;17.97;;;19.80;95.50;;;;;;4990029;28;20287;-75
2021/07/18 00:04:23;;;;;;;35.87;18.70;;;19.80;95.50;;;;;;4990033;28;20722;-74
2021/07/18 00:06:49;;;;;;;28.13;17.07;;;19.80;95.40;;;;;;4989237;28;20182;-74
2021/07/18 00:09:15;;;;;;;33.47;17.47;;;19.80;95.30;;;;;;4989163;28;20183;-76
2021/07/18 00:11:40;;;;;;;34.13;18.40;;;19.80;95.40;;;;;;4989550;28;20178;-74
2021/07/18 00:14:09;;;;;;;32.23;17.13;;;19.80;95.10;;;;;;4992409;28;20260;-75
2021/07/18 00:16:35;;;;;;;33.07;18.90;;;19.70;95.20;;;;;;4993925;28;20272;-75
2021/07/18 00:19:01;;;;;;;36.30;17.90;;;19.70;95.30;;;;;;4994702;28;20519;-75
2021/07/18 00:21:27;;;;;;;34.03;18.83;;;19.60;95.30;;;;;;4991842;28;20750;-74
2021/07/18 00:23:54;;;;;;;33.23;17.23;;;19.60;95.30;;;;;;4994260;28;20276;-74
2021/07/18 00:26:21;;;;;;;31.63;16.20;;;19.50;95.40;;;;;;4989679;28;20453;-74
2021/07/18 00:28:46;;;;;;;37.43;17.53;;;19.50;95.60;;;;;;4988275;28;20436;-74
2021/07/18 00:31:12;;;;;;;28.80;15.73;;;19.50;95.50;;;;;;4992138;28;20429;-74
2021/07/18 00:33:38;;;;;;;32.90;17.40;;;19.50;95.40;;;;;;4992870;28;20183;-74
2021/07/18 00:36:04;;;;;;;35.00;17.37;;;19.50;95.40;;;;;;4991710;28;20249;-75
2021/07/18 00:38:30;;;;;;;33.43;17.33;;;19.50;95.30;;;;;;4995090;28;20431;-76
2021/07/18 00:40:55;;;;;;;28.97;16.10;;;19.40;95.10;;;;;;5006556;28;20429;-75
2021/07/18 00:43:21;;;;;;;26.60;15.20;;;19.40;95.20;;;;;;5008051;28;20242;-75
2021/07/18 00:45:47;;;;;;;26.33;15.77;;;19.50;95.10;;;;;;4994874;28;20575;-76
2021/07/18 00:48:12;;;;;;;31.97;15.97;;;19.40;95.00;;;;;;4994010;28;20189;-75
2021/07/18 00:50:44;;;;;;;31.03;16.07;;;19.40;95.20;;;;;;4989214;28;20235;-76
2021/07/18 00:53:11;;;;;;;30.57;15.17;;;19.40;95.10;;;;;;4991335;28;20197;-75
2021/07/18 00:55:40;;;;;;;24.37;14.30;;;19.30;95.00;;;;;;4992581;28;20504;-73
2021/07/18 00:58:06;;;;;;;24.97;15.50;;;19.30;94.80;;;;;;4989772;28;20480;-74
2021/07/18 01:00:32;;;;;;;27.57;15.30;;;19.40;94.50;;;;;;4989869;28;20520;-73
2021/07/18 01:02:59;;;;;;;26.23;14.73;;;19.30;94.70;;;;;;4988276;28;20566;-74
2021/07/18 01:05:24;;;;;;;28.83;15.43;;;19.30;94.80;;;;;;4992828;28;20455;-74
2021/07/18 01:07:51;;;;;;;29.93;13.60;;;19.30;94.70;;;;;;4987296;28;20431;-73
2021/07/18 01:10:16;;;;;;;26.00;13.50;;;19.20;94.30;;;;;;4991637;28;20261;-75
2021/07/18 01:12:42;;;;;;;31.37;15.90;;;19.10;94.40;;;;;;4985586;28;20525;-75
2021/07/18 01:15:09;;;;;;;24.50;15.30;;;19.20;94.60;;;;;;4984657;28;20296;-76
2021/07/18 01:17:36;;;;;;;22.60;12.23;;;19.20;94.50;;;;;;4992709;28;20421;-74
2021/07/18 01:20:04;;;;;;;29.63;13.70;;;19.20;94.00;;;;;;4983118;28;20425;-75
2021/07/18 01:22:31;;;;;;;23.87;13.20;;;19.10;93.90;;;;;;4985882;28;20578;-74
2021/07/18 01:24:57;;;;;;;22.63;12.37;;;19.10;92.90;;;;;;4991433;28;20452;-74
2021/07/18 01:27:23;;;;;;;20.23;11.80;;;19.10;92.90;;;;;;4988352;28;20429;-74
2021/07/18 01:29:50;;;;;;;23.73;12.67;;;19.10;92.90;;;;;;4991910;28;20487;-74
2021/07/18 01:32:15;;;;;;;16.20;9.30;;;19.10;92.70;;;;;;4991102;28;20428;-75
2021/07/18 01:34:41;;;;;;;18.80;11.17;;;19.10;92.00;;;;;;4983761;28;20444;-75
2021/07/18 01:37:07;;;;;;;15.93;10.17;;;19.10;91.80;;;;;;4987532;28;20631;-74
2021/07/18 01:39:33;;;;;;;20.30;11.37;;;19.10;91.70;;;;;;4991434;28;20914;-74
2021/07/18 01:41:58;;;;;;;20.03;11.10;;;19.10;92.00;;;;;;4984944;28;20196;-76
2021/07/18 01:44:24;;;;;;;21.13;12.57;;;19.10;92.00;;;;;;4993120;28;20182;-76
2021/07/18 01:46:51;;;;;;;19.97;11.90;;;19.00;92.30;;;;;;4985156;28;20702;-74
2021/07/18 01:49:16;;;;;;;18.93;10.60;;;19.00;92.10;;;;;;4993869;28;20193;-75
2021/07/18 01:51:43;;;;;;;22.30;11.23;;;18.90;92.40;;;;;;4990631;28;20418;-76
2021/07/18 01:54:10;;;;;;;20.60;11.17;;;18.80;92.70;;;;;;4990708;28;20211;-76
2021/07/18 01:56:36;;;;;;;20.57;11.40;;;18.70;93.00;;;;;;4993429;28;20437;-77
2021/07/18 01:59:02;;;;;;;19.50;11.30;;;18.70;93.30;;;;;;4983900;28;20419;-76
2021/07/18 02:01:30;;;;;;;20.57;11.03;;;18.70;93.50;;;;;;4996235;28;20819;-76
2021/07/18 02:03:56;;;;;;;23.60;11.47;;;18.70;93.40;;;;;;4993797;28;20225;-76
2021/07/18 02:06:24;;;;;;;21.07;11.30;;;18.60;93.50;;;;;;4993262;28;20446;-74
2021/07/18 02:08:51;;;;;;;22.60;11.17;;;18.50;93.30;;;;;;4992071;28;20469;-74
2021/07/18 02:11:18;;;;;;;14.83;9.87;;;18.40;93.60;;;;;;4992550;28;20431;-75
2021/07/18 02:13:49;;;;;;;22.37;11.90;;;18.40;93.60;;;;;;5003960;28;20443;-74
2021/07/18 02:16:15;;;;;;;18.07;10.87;;;18.40;93.60;;;;;;4993491;28;20463;-74
2021/07/18 02:18:42;;;;;;;14.23;9.47;;;18.40;93.70;;;;;;4993306;28;20422;-75
2021/07/18 02:21:08;;;;;;;16.37;9.50;;;18.30;93.60;;;;;;4992003;28;20506;-74
2021/07/18 02:23:34;;;;;;;17.00;10.03;;;18.30;93.60;;;;;;4992797;28;20505;-76
2021/07/18 02:26:01;;;;;;;19.33;10.20;;;18.30;93.50;;;;;;4992581;28;20453;-76
2021/07/18 02:28:27;;;;;;;17.00;10.20;;;18.20;93.50;;;;;;4992716;28;20504;-75
2021/07/18 02:30:52;;;;;;;15.80;8.60;;;18.20;93.30;;;;;;4992843;28;20518;-74
2021/07/18 02:33:18;;;;;;;15.57;9.80;;;18.10;93.20;;;;;;4992250;28;20437;-74
2021/07/18 02:35:44;;;;;;;16.33;8.90;;;18.00;92.90;;;;;;4986256;28;20214;-74
2021/07/18 02:38:10;;;;;;;21.23;9.60;;;18.00;92.80;;;;;;4989258;28;20245;-75
2021/07/18 02:40:36;;;;;;;25.83;10.03;;;18.00;92.80;;;;;;4988767;28;20267;-73
2021/07/18 02:43:02;;;;;;;15.37;9.10;;;18.10;92.80;;;;;;4988279;28;20899;-74
2021/07/18 02:45:30;;;;;;;16.00;9.97;;;18.00;93.00;;;;;;4984074;28;20466;-74
2021/07/18 02:47:56;;;;;;;14.50;7.80;;;18.00;92.90;;;;;;4986760;28;20434;-74
2021/07/18 02:50:27;;;;;;;14.27;9.50;;;18.00;92.80;;;;;;4989359;28;20437;-74
2021/07/18 02:52:54;;;;;;;13.67;9.10;;;17.90;92.30;;;;;;4985167;28;20467;-75
2021/07/18 02:55:21;;;;;;;19.20;9.00;;;17.90;92.40;;;;;;4997421;28;21174;-74
2021/07/18 02:57:47;;;;;;;12.17;7.93;;;17.90;92.50;;;;;;4995028;28;20454;-74
2021/07/18 03:00:15;;;;;;;15.13;8.73;;;17.90;92.30;;;;;;4994350;28;20510;-74
2021/07/18 03:02:43;;;;;;;18.70;8.33;;;17.90;92.60;;;;;;4988257;28;20465;-74
2021/07/18 03:05:10;;;;;;;14.83;7.73;;;17.80;92.90;;;;;;4991625;28;20534;-74
2021/07/18 03:07:37;;;;;;;13.40;8.47;;;17.90;92.60;;;;;;4985435;28;20426;-73
2021/07/18 03:10:07;;;;;;;13.27;7.50;;;17.80;92.60;;;;;;4991402;28;20429;-73
2021/07/18 03:12:33;;;;;;;16.23;7.40;;;17.80;92.60;;;;;;4991307;28;20449;-73
2021/07/18 03:15:08;;;;;;;15.33;8.20;;;17.80;92.60;;;;;;4991903;28;20454;-75
2021/07/18 03:17:34;;;;;;;11.57;7.67;;;17.70;92.40;;;;;;4993179;28;20417;-75
2021/07/18 03:19:59;;;;;;;14.07;9.03;;;17.70;92.40;;;;;;4992717;28;20434;-75
2021/07/18 03:22:26;;;;;;;16.27;7.80;;;17.60;92.60;;;;;;4990607;28;20206;-75
2021/07/18 03:24:52;;;;;;;13.00;7.93;;;17.60;92.80;;;;;;4987390;28;20444;-76
2021/07/18 03:27:18;;;;;;;14.13;7.83;;;17.60;92.50;;;;;;4988063;28;20519;-76
2021/07/18 03:29:44;;;;;;;12.60;7.83;;;17.70;92.00;;;;;;4985408;28;20274;-76
2021/07/18 03:32:09;;;;;;;15.43;7.47;;;17.70;91.40;;;;;;4990012;28;20226;-75
2021/07/18 03:34:35;;;;;;;15.20;7.40;;;17.70;91.40;;;;;;4988892;28;20245;-75
2021/07/18 03:37:01;;;;;;;17.53;8.73;;;17.70;91.50;;;;;;4985622;28;20193;-74
2021/07/18 03:39:27;;;;;;;17.07;7.77;;;17.70;91.20;;;;;;4985952;28;20186;-74
2021/07/18 03:41:52;;;;;;;12.40;7.40;;;17.70;91.20;;;;;;4983955;28;20419;-75
2021/07/18 03:44:18;;;;;;;14.03;8.20;;;17.70;91.40;;;;;;4988974;28;20681;-75
2021/07/18 03:46:44;;;;;;;11.47;7.63;;;17.70;91.40;;;;;;4982366;28;20198;-74
2021/07/18 03:49:11;;;;;;;14.10;8.23;;;17.60;91.20;;;;;;4985072;28;20187;-74
2021/07/18 03:51:36;;;;;;;11.33;6.40;;;17.60;91.10;;;;;;4982587;28;20179;-74
2021/07/18 03:54:02;;;;;;;11.07;7.30;;;17.60;91.40;;;;;;4982237;28;20933;-74
2021/07/18 03:56:28;;;;;;;16.67;7.80;;;17.60;91.50;;;;;;4989837;28;20672;-74
2021/07/18 03:58:54;;;;;;;12.53;7.43;;;17.60;91.50;;;;;;4980698;28;20261;-74
2021/07/18 04:01:20;;;;;;;10.60;6.40;;;17.60;91.70;;;;;;4989165;28;20202;-73
2021/07/18 04:03:48;;;;;;;13.90;7.87;;;17.60;91.90;;;;;;4984698;28;20218;-74
2021/07/18 04:06:15;;;;;;;14.33;7.73;;;17.60;91.70;;;;;;4985984;28;20457;-74
2021/07/18 04:08:41;;;;;;;11.33;7.53;;;17.50;91.70;;;;;;4989827;28;20456;-74
2021/07/18 04:11:08;;;;;;;12.40;7.03;;;17.40;91.60;;;;;;4985876;28;20433;-74
2021/07/18 04:13:34;;;;;;;15.50;7.30;;;17.40;91.80;;;;;;4979821;28;20429;-75
2021/07/18 04:15:59;;;;;;;14.97;7.40;;;17.50;91.90;;;;;;4985374;28;20454;-73
2021/07/18 04:18:25;;;;;;;10.43;5.73;;;17.50;91.70;;;;;;4985802;28;20464;-75
2021/07/18 04:20:51;;;;;;;15.70;7.53;;;17.50;91.30;;;;;;4983615;28;20663;-76
2021/07/18 04:23:17;;;;;;;12.10;6.40;;;17.50;91.30;;;;;;4984536;28;20272;-75
2021/07/18 04:25:46;;;;;;;8.90;5.23;;;17.40;90.90;;;;;;4982615;28;20816;-74
2021/07/18 04:28:12;;;;;;;10.60;5.83;;;17.50;90.30;;;;;;4982424;28;20202;-74
2021/07/18 04:30:39;;;;;;;9.70;6.13;;;17.50;90.20;;;;;;4988449;28;20834;-74
2021/07/18 04:33:05;;;;;;;9.63;5.87;;;17.60;89.90;;;;;;4986747;28;20436;-74
2021/07/18 04:35:31;;;;;;;10.30;5.23;;;17.60;90.10;;;;;;4987122;28;20488;-73
2021/07/18 04:37:57;;;;;;;7.03;4.77;;;17.50;89.30;;;;;;4984622;28;20472;-74
2021/07/18 04:40:23;;;;;;;6.57;5.80;;;17.50;88.60;;;;;;4988818;28;20528;-74
2021/07/18 04:42:49;;;;;;;10.23;5.73;;;17.60;87.70;;;;;;4983155;28;20469;-74
2021/07/18 04:45:15;;;;;;;11.17;5.50;;;17.70;87.60;;;;;;4985137;28;20977;-74
2021/07/18 04:47:48;;;;;;;13.73;5.53;;;17.70;87.80;;;;;;4988786;28;20190;-75
2021/07/18 04:50:15;;;;;;;9.27;5.40;;;17.70;87.70;;;;;;4988723;28;20437;-74
2021/07/18 04:52:41;;;;;;;8.23;5.40;;;17.80;87.10;;;;;;4981293;28;20429;-74
2021/07/18 04:55:09;;;;;;;8.83;5.57;;;17.90;86.90;;;;;;4982729;28;20437;-74
2021/07/18 04:57:35;;;;;;;7.60;4.47;;;17.80;86.80;;;;;;4989043;28;20445;-75
2021/07/18 05:00:09;;;;;;;10.67;5.47;;;17.90;86.30;;;;;;4986009;28;20969;-74
2021/07/18 05:02:35;;;;;;;7.80;4.83;;;18.00;86.00;;;;;;4993911;28;20479;-74
2021/07/18 05:05:01;;;;;;;7.53;4.33;;;18.00;85.60;;;;;;4993824;28;20524;-74
2021/07/18 05:07:27;;;;;;;12.30;4.47;;;18.00;85.20;;;;;;4994082;28;20990;-75
2021/07/18 05:09:53;;;;;;;7.53;4.67;;;17.90;84.90;;;;;;4994524;28;20422;-74
2021/07/18 05:12:19;;;;;;;9.30;4.87;;;17.90;84.30;;;;;;4999147;28;20198;-74
2021/07/18 05:14:45;;;;;;;7.83;4.77;;;18.00;84.00;;;;;;5001704;28;20502;-75
2021/07/18 05:17:13;;;;;;;12.17;4.33;;;18.00;84.00;;;;;;4999496;28;20190;-74
2021/07/18 05:19:39;;;;;;;6.83;4.77;;;18.00;83.80;;;;;;4993431;28;20447;-75
2021/07/18 05:22:05;;;;;;;7.30;4.60;;;18.00;83.80;;;;;;4993373;28;20445;-75
2021/07/18 05:24:31;;;;;;;8.67;4.57;;;17.90;84.10;;;;;;4992560;28;20965;-74
2021/07/18 05:26:56;;;;;;;8.00;4.57;;;17.90;83.80;;;;;;4993623;28;20959;-74
2021/07/18 05:29:22;;;;;;;7.13;4.03;;;17.90;83.70;;;;;;4984067;28;20190;-75
2021/07/18 05:31:48;;;;;;;6.20;3.87;;;18.00;83.40;;;;;;4987795;28;20193;-73
2021/07/18 05:34:13;;;;;;;9.20;4.17;;;18.10;83.10;;;;;;4990131;28;20218;-73
2021/07/18 05:36:39;;;;;;;12.23;4.00;;;18.10;82.10;;;;;;4991840;28;20215;-74
2021/07/18 05:39:05;;;;;;;6.80;4.17;;;18.20;81.80;;;;;;4987421;28;20584;-75
2021/07/18 05:41:31;;;;;;;6.10;4.10;;;18.20;82.80;;;;;;4989793;28;20203;-74
2021/07/18 05:43:56;;;;;;;8.50;3.80;;;18.30;82.80;;;;;;5011915;28;20214;-75
2021/07/18 05:46:22;;;;;;;6.77;3.30;;;18.40;82.80;;;;;;4998320;28;20444;-75
2021/07/18 05:48:48;;;;;;;10.13;3.50;;;18.40;80.00;;;;;;4987120;28;20590;-73
2021/07/18 05:51:14;;;;;;;9.00;3.57;;;18.50;79.60;;;;;;4989957;28;20653;-73
2021/07/18 05:53:39;;;;;;;7.87;3.50;;;18.50;79.50;;;;;;4992646;28;20529;-74
2021/07/18 05:56:05;;;;;;;5.43;3.00;;;18.60;79.50;;;;;;4993097;28;20222;-74
2021/07/18 05:58:31;;;;;;;4.90;2.83;;;18.70;80.50;;;;;;4993267;28;20239;-73
2021/07/18 06:00:57;;;;;;;6.20;3.17;;;18.70;78.60;;;;;;4994261;28;20192;-75
2021/07/18 06:03:22;;;;;;;9.50;3.70;;;18.90;77.80;;;;;;4989626;28;21690;-73
2021/07/18 06:05:48;;;;;;;5.83;3.27;;;18.80;77.00;;;;;;4991544;28;20214;-74
2021/07/18 06:08:14;;;;;;;5.53;3.00;;;18.80;77.70;;;;;;4994791;28;20207;-74
2021/07/18 06:10:40;;;;;;;3.67;2.40;;;18.90;78.00;;;;;;4993398;28;20229;-76
2021/07/18 06:13:05;;;;;;;3.80;2.80;;;18.80;75.90;;;;;;4985903;28;20196;-75
2021/07/18 06:15:32;;;;;;;5.73;3.00;;;18.80;75.90;;;;;;4994149;28;20214;-73
2021/07/18 06:17:58;;;;;;;4.90;2.80;;;18.70;76.50;;;;;;4990188;28;20226;-74
2021/07/18 06:20:23;;;;;;;6.90;2.90;;;18.80;76.70;;;;;;4989674;28;20920;-75
2021/07/18 06:22:51;;;;;;;6.53;2.60;;;18.80;76.20;;;;;;4987018;28;20212;-76
2021/07/18 06:25:17;;;;;;;5.77;2.90;;;18.70;76.80;;;;;;4982015;28;20209;-74
2021/07/18 06:27:43;;;;;;;5.27;3.37;;;18.80;77.10;;;;;;4987291;28;20487;-75
2021/07/18 06:30:11;;;;;;;8.93;2.83;;;18.90;76.10;;;;;;4989031;28;20429;-75
2021/07/18 06:32:37;;;;;;;6.37;2.70;;;18.90;75.80;;;;;;4988279;28;20964;-75
2021/07/18 06:35:03;;;;;;;5.80;3.00;;;19.00;75.70;;;;;;4988753;28;20482;-75
2021/07/18 06:37:29;;;;;;;6.67;3.23;;;19.00;75.80;;;;;;4991605;28;20501;-75
2021/07/18 06:39:55;;;;;;;6.30;3.13;;;19.00;75.90;;;;;;4991891;28;20944;-74
2021/07/18 06:42:20;;;;;;;5.20;2.50;;;19.10;75.20;;;;;;4990457;28;20254;-75
2021/07/18 06:44:46;;;;;;;5.07;2.60;;;19.00;75.80;;;;;;4986743;28;20289;-75
2021/07/18 06:47:12;;;;;;;4.20;2.40;;;19.10;75.40;;;;;;4991610;28;20195;-74
2021/07/18 06:49:38;;;;;;;6.20;2.60;;;19.00;75.20;;;;;;4991376;28;20878;-72
2021/07/18 06:52:04;;;;;;;4.90;2.70;;;19.00;75.10;;;;;;4983955;28;20216;-74
2021/07/18 06:54:30;;;;;;;8.67;3.33;;;19.00;75.40;;;;;;4985970;28;20607;-75
2021/07/18 06:56:55;;;;;;;9.03;3.17;;;18.90;76.20;;;;;;4988621;28;20470;-74
2021/07/18 06:59:21;;;;;;;5.37;3.17;;;18.90;76.50;;;;;;4983322;28;20188;-74
2021/07/18 07:01:47;;;;;;;8.23;3.00;;;19.00;76.10;;;;;;4988028;28;20277;-74
2021/07/18 07:04:12;;;;;;;6.73;2.97;;;19.20;75.40;;;;;;4991162;28;20220;-74
2021/07/18 07:06:38;;;;;;;7.30;3.10;;;19.20;75.20;;;;;;4983850;28;20189;-76
2021/07/18 07:09:04;;;;;;;6.70;3.27;;;19.20;75.70;;;;;;4987087;28;20272;-76
2021/07/18 07:11:30;;;;;;;4.50;3.07;;;19.20;76.10;;;;;;4982827;28;20191;-77
2021/07/18 07:13:55;;;;;;;7.80;3.53;;;19.30;75.50;;;;;;4984438;28;20190;-77
2021/07/18 07:16:21;;;;;;;6.20;2.97;;;19.30;75.70;;;;;;4984243;28;20704;-76
2021/07/18 07:18:47;;;;;;;36.50;13.90;;;19.40;75.10;;;;;;4987166;28;20286;-77
2021/07/18 07:21:13;;;;;;;7.20;3.77;;;19.50;75.20;;;;;;4983001;28;20203;-76
2021/07/18 07:23:40;;;;;;;14.70;9.07;;;19.60;75.40;;;;;;4988586;28;20474;-76
2021/07/18 07:26:06;;;;;;;7.90;4.37;;;19.60;75.70;;;;;;4980356;28;20983;-76
2021/07/18 07:28:33;;;;;;;6.03;3.30;;;19.70;74.90;;;;;;4990218;28;20780;-76
2021/07/18 07:31:01;;;;;;;5.50;2.80;;;19.70;74.90;;;;;;4988954;28;20433;-76
2021/07/18 07:33:29;;;;;;;5.30;3.10;;;19.70;74.60;;;;;;4987738;28;20456;-76
2021/07/18 07:35:55;;;;;;;6.63;2.70;;;19.70;75.10;;;;;;4988715;28;20451;-76
2021/07/18 07:38:21;;;;;;;9.00;3.20;;;19.70;75.10;;;;;;4990848;28;20476;-76
2021/07/18 07:40:47;;;;;;;7.90;3.73;;;19.80;75.10;;;;;;4984426;28;20952;-75
2021/07/18 07:43:13;;;;;;;6.80;3.33;;;20.00;75.20;;;;;;4988290;28;20222;-76
2021/07/18 07:45:39;;;;;;;6.43;3.40;;;20.00;73.90;;;;;;4986819;28;20450;-76
2021/07/18 07:48:05;;;;;;;7.30;3.57;;;19.90;74.60;;;;;;4989175;28;20187;-76
2021/07/18 07:50:31;;;;;;;10.43;6.33;;;19.90;75.10;;;;;;4988909;28;20417;-76
2021/07/18 07:52:57;;;;;;;9.90;4.80;;;20.00;75.50;;;;;;4988992;28;20428;-76
2021/07/18 07:55:24;;;;;;;10.77;6.87;;;20.10;74.60;;;;;;4988802;28;20699;-75
2021/07/18 07:57:50;;;;;;;9.90;6.27;;;20.20;74.60;;;;;;4989125;28;21300;-77
2021/07/18 08:00:17;;;;;;;9.47;5.80;;;20.30;74.00;;;;;;4987445;28;20544;-77
2021/07/18 08:02:49;;;;;;;16.03;8.73;;;20.40;74.50;;;;;;4982650;28;20878;-76
2021/07/18 08:05:16;;;;;;;13.17;4.47;;;20.50;74.60;;;;;;4990282;28;20780;-75
2021/07/18 08:07:42;;;;;;;5.00;3.47;;;20.50;73.60;;;;;;4983481;28;20947;-76
2021/07/18 08:10:16;;;;;;;7.37;3.57;;;20.50;74.00;;;;;;4985091;28;20439;-75
2021/07/18 08:12:43;;;;;;;7.23;3.87;;;20.50;74.30;;;;;;4994029;28;20261;-75
2021/07/18 08:15:11;;;;;;;7.77;4.20;;;20.50;74.50;;;;;;5005843;28;20773;-75
2021/07/18 08:17:37;;;;;;;8.37;3.70;;;20.70;74.50;;;;;;4999278;28;20437;-75
2021/07/18 08:20:08;;;;;;;10.20;4.47;;;20.70;73.60;;;;;;4990001;28;20511;-76
2021/07/18 08:22:34;;;;;;;8.50;4.17;;;20.70;73.50;;;;;;4993109;28;20449;-75
2021/07/18 08:25:00;;;;;;;6.00;3.67;;;20.60;73.70;;;;;;4997653;28;20438;-76
2021/07/18 08:27:25;;;;;;;7.60;3.60;;;20.70;74.60;;;;;;4999684;28;20434;-78
2021/07/18 08:29:51;;;;;;;9.37;3.53;;;20.80;73.20;;;;;;5007173;28;20188;-78
2021/07/18 08:32:17;;;;;;;6.20;3.60;;;20.80;73.50;;;;;;4997599;28;20195;-76
2021/07/18 08:34:42;;;;;;;6.80;3.63;;;20.80;73.60;;;;;;4983661;28;20202;-76
2021/07/18 08:37:08;;;;;;;10.57;3.90;;;20.70;74.20;;;;;;4995075;28;20649;-77
2021/07/18 08:39:34;;;;;;;5.90;3.63;;;20.80;74.50;;;;;;4993147;28;20198;-78
2021/07/18 08:42:01;;;;;;;6.80;3.83;;;21.00;73.60;;;;;;4987412;28;20183;-74
2021/07/18 08:44:28;;;;;;;6.40;3.50;;;21.00;72.90;;;;;;4994756;28;20272;-76
2021/07/18 08:46:54;;;;;;;11.93;3.67;;;20.90;73.00;;;;;;4992471;28;21152;-76
2021/07/18 08:49:20;;;;;;;6.77;3.30;;;21.00;73.70;;;;;;4991752;28;20450;-76
2021/07/18 08:51:46;;;;;;;7.17;3.87;;;21.10;73.60;;;;;;4994305;28;20187;-77
2021/07/18 08:54:12;;;;;;;6.20;3.90;;;21.00;73.60;;;;;;4983666;28;20225;-76
2021/07/18 08:56:40;;;;;;;7.90;4.57;;;21.00;73.90;;;;;;4991945;28;20461;-77
2021/07/18 08:59:06;;;;;;;6.70;3.73;;;21.10;73.60;;;;;;4982924;28;20427;-78
2021/07/18 09:01:41;;;;;;;7.03;3.50;;;21.20;73.60;;;;;;4990484;28;20440;-77
2021/07/18 09:04:06;;;;;;;5.10;3.20;;;21.30;73.30;;;;;;4991253;28;21346;-77
2021/07/18 09:06:46;;;;;;;8.63;3.73;;;21.40;73.30;;;;;;4982185;28;20547;-76
2021/07/18 09:09:15;;;;;;;12.57;5.87;;;21.50;72.40;;;;;;4989608;28;20201;-76
2021/07/18 09:11:42;;;;;;;15.03;7.53;;;21.60;72.40;;;;;;4985354;28;20996;-78
2021/07/18 09:14:10;;;;;;;15.33;6.60;;;21.70;72.10;;;;;;4985342;28;20426;-76
2021/07/18 09:16:41;;;;;;;7.83;4.80;;;21.70;71.60;;;;;;4987591;28;20483;-77
2021/07/18 09:19:15;;;;;;;10.87;5.00;;;21.70;71.70;;;;;;4989927;28;20499;-76
2021/07/18 09:21:57;;;;;;;16.90;4.40;;;21.60;71.80;;;;;;4986518;28;20501;-77
2021/07/18 09:24:24;;;;;;;8.20;4.07;;;21.70;71.70;;;;;;4985546;28;20477;-76
2021/07/18 09:27:11;;;;;;;7.90;4.00;;;21.70;72.00;;;;;;4985556;28;20646;-76
2021/07/18 09:29:52;;;;;;;7.03;4.30;;;21.80;71.80;;;;;;4986943;28;20437;-76
2021/07/18 09:32:24;;;;;;;6.70;3.50;;;21.90;72.10;;;;;;4991593;28;20462;-77
2021/07/18 09:34:51;;;;;;;8.87;4.50;;;22.00;71.40;;;;;;4990864;28;20447;-76
2021/07/18 09:37:29;;;;;;;6.87;3.83;;;22.10;71.60;;;;;;4984871;28;20428;-73
2021/07/18 09:39:59;;;;;;;7.73;3.63;;;22.10;70.20;;;;;;4982857;28;20484;-74
2021/07/18 09:42:32;;;;;;;9.20;4.70;;;22.00;70.70;;;;;;4985238;28;20803;-74
2021/07/18 09:44:59;;;;;;;6.57;4.00;;;22.00;71.40;;;;;;4986519;28;20540;-73
2021/07/18 09:47:26;;;;;;;12.00;6.70;;;22.20;71.00;;;;;;4983095;28;20443;-73
2021/07/18 09:49:51;;;;;;;9.60;6.23;;;22.30;70.10;;;;;;4986037;28;20438;-75
2021/07/18 09:52:20;;;;;;;5.80;3.70;;;22.30;70.20;;;;;;4980155;28;20536;-73
2021/07/18 09:54:50;;;;;;;11.43;4.90;;;22.40;69.80;;;;;;4990462;28;20210;-74
2021/07/18 09:57:36;;;;;;;5.93;3.57;;;22.50;70.70;;;;;;4989388;28;20954;-73
2021/07/18 10:00:06;;;;;;;10.80;3.67;;;22.60;70.50;;;;;;4984225;28;20436;-74
2021/07/18 10:02:33;;;;;;;6.40;3.77;;;22.60;69.40;;;;;;4983492;28;20429;-74
2021/07/18 10:04:59;;;;;;;8.50;3.93;;;22.70;68.30;;;;;;4990575;28;20548;-74
2021/07/18 10:07:35;;;;;;;8.00;3.90;;;22.70;69.10;;;;;;4983729;28;20437;-74
2021/07/18 10:10:05;;;;;;;5.03;3.40;;;22.80;68.60;;;;;;4989902;28;20977;-73
2021/07/18 10:12:32;;;;;;;6.20;3.60;;;22.90;67.90;;;;;;4989507;28;20437;-74
2021/07/18 10:14:59;;;;;;;6.70;3.40;;;23.00;67.50;;;;;;4985626;28;21006;-74
2021/07/18 10:17:29;;;;;;;9.20;3.93;;;23.20;67.00;;;;;;4990300;28;20493;-74
2021/07/18 10:19:57;;;;;;;8.43;3.80;;;23.50;67.00;;;;;;4985676;28;20431;-72
2021/07/18 10:22:25;;;;;;;7.33;3.87;;;23.60;66.30;;;;;;4989834;28;21254;-72
2021/07/18 10:24:53;;;;;;;6.13;3.60;;;23.90;66.40;;;;;;4990351;28;20456;-74
2021/07/18 10:27:20;;;;;;;7.77;3.67;;;24.30;65.60;;;;;;4986959;28;20433;-74
2021/07/18 10:29:48;;;;;;;5.60;3.50;;;24.40;65.60;;;;;;4987559;28;20464;-73
2021/07/18 10:32:16;;;;;;;8.17;3.60;;;24.60;65.00;;;;;;4985390;28;20440;-74
2021/07/18 10:34:44;;;;;;;7.00;3.77;;;24.80;64.10;;;;;;4990729;28;20459;-74
2021/07/18 10:37:11;;;;;;;6.33;3.70;;;25.00;63.90;;;;;;4991195;28;20425;-72
2021/07/18 10:39:42;;;;;;;6.33;3.90;;;25.00;62.60;;;;;;4988411;28;20471;-73
2021/07/18 10:42:15;;;;;;;5.63;3.53;;;24.90;63.90;;;;;;4992242;28;20412;-76
2021/07/18 10:44:50;;;;;;;7.47;3.47;;;25.20;62.50;;;;;;4987086;28;20476;-72
2021/07/18 10:47:16;;;;;;;9.67;3.87;;;25.40;61.00;;;;;;4991587;28;20457;-74
2021/07/18 10:49:55;;;;;;;9.53;3.27;;;25.10;61.60;;;;;;4991086;28;20437;-74
2021/07/18 10:52:32;;;;;;;6.70;4.30;;;25.30;60.70;;;;;;4982094;28;20427;-73
2021/07/18 10:55:19;;;;;;;8.70;3.67;;;25.30;61.70;;;;;;4988377;28;20910;-74
2021/07/18 10:57:51;;;;;;;6.50;2.93;;;25.30;61.00;;;;;;4991489;28;20434;-74
2021/07/18 11:00:24;;;;;;;6.53;4.27;;;25.30;60.60;;;;;;4992564;28;20452;-74
2021/07/18 11:03:07;;;;;;;7.20;3.57;;;25.40;60.70;;;;;;4994123;28;21458;-74
2021/07/18 11:05:44;;;;;;;8.07;3.70;;;25.50;59.90;;;;;;4985620;28;20526;-73
2021/07/18 11:08:10;;;;;;;9.53;3.57;;;25.20;61.70;;;;;;4995026;28;20418;-73
2021/07/18 11:10:53;;;;;;;9.23;3.73;;;25.20;61.00;;;;;;5010703;28;20446;-75
2021/07/18 11:13:20;;;;;;;6.50;3.10;;;25.40;60.60;;;;;;4991362;28;20541;-75
2021/07/18 11:15:46;;;;;;;5.93;3.67;;;25.30;61.60;;;;;;4991985;28;20447;-73
2021/07/18 11:18:17;;;;;;;8.13;3.50;;;25.20;61.60;;;;;;4980592;28;20542;-75
2021/07/18 11:20:50;;;;;;;10.03;3.47;;;25.50;60.70;;;;;;4988710;28;20960;-74
2021/07/18 11:23:33;;;;;;;6.43;3.13;;;25.60;59.90;;;;;;4988691;28;20958;-74
2021/07/18 11:26:04;;;;;;;6.20;3.47;;;25.70;59.10;;;;;;4989239;28;20472;-73
2021/07/18 11:31:13;;;;;;;5.07;3.20;;;25.10;60.10;;;;;;4985080;28;20416;-73
2021/07/18 11:33:45;;;;;;;11.33;4.13;;;25.20;60.40;;;;;;4990083;28;20207;-74
2021/07/18 11:36:41;;;;;;;8.07;3.73;;;25.40;59.90;;;;;;4991487;28;20493;-74
2021/07/18 11:39:11;;;;;;;5.47;3.70;;;25.50;58.80;;;;;;4988410;28;20431;-75
2021/07/18 11:41:37;;;;;;;8.43;3.83;;;25.50;59.90;;;;;;4991051;28;20536;-74
2021/07/18 11:44:04;;;;;;;7.23;3.23;;;25.50;59.60;;;;;;4990843;28;20463;-74
2021/07/18 11:46:35;;;;;;;6.20;3.40;;;25.70;58.50;;;;;;4985015;28;20441;-75
2021/07/18 11:49:03;;;;;;;6.90;3.60;;;25.70;58.10;;;;;;4991616;28;20458;-73
2021/07/18 11:51:29;;;;;;;9.47;3.80;;;25.80;58.20;;;;;;4991573;28;20439;-73
2021/07/18 11:53:59;;;;;;;8.40;4.20;;;25.90;58.10;;;;;;4985783;28;20428;-73
2021/07/18 11:56:36;;;;;;;6.97;3.60;;;26.00;57.70;;;;;;4987521;28;20864;-73
2021/07/18 11:59:14;;;;;;;6.60;3.93;;;26.20;56.60;;;;;;4991192;28;20432;-74
2021/07/18 12:01:42;;;;;;;7.07;3.80;;;26.20;57.20;;;;;;4980285;28;20456;-75
2021/07/18 12:04:22;;;;;;;6.67;3.40;;;26.10;57.30;;;;;;4989949;28;20465;-75
2021/07/18 12:06:49;;;;;;;5.60;3.80;;;26.00;56.60;;;;;;4991283;28;20417;-73
2021/07/18 12:09:17;;;;;;;5.53;3.67;;;26.00;56.50;;;;;;4990533;28;20424;-73
2021/07/18 12:11:44;;;;;;;8.20;4.30;;;26.10;56.90;;;;;;4991524;28;20543;-74
2021/07/18 12:14:11;;;;;;;6.50;4.27;;;26.10;57.70;;;;;;4990754;28;20417;-73
2021/07/18 12:16:39;;;;;;;9.13;4.30;;;26.20;57.80;;;;;;4988498;28;20449;-74
2021/07/18 12:19:06;;;;;;;8.07;5.00;;;26.40;57.00;;;;;;4985704;28;20429;-76
2021/07/18 12:21:36;;;;;;;10.27;5.80;;;26.20;57.00;;;;;;4991526;28;20998;-74
2021/07/18 12:24:24;;;;;;;11.07;6.20;;;26.10;57.20;;;;;;4989844;28;20473;-74
2021/07/18 12:27:01;;;;;;;11.10;6.80;;;26.50;56.10;;;;;;4986152;28;20426;-74
2021/07/18 12:29:31;;;;;;;11.93;6.70;;;26.40;55.30;;;;;;4991845;28;20482;-73
2021/07/18 12:31:58;;;;;;;12.87;6.87;;;26.50;55.60;;;;;;4991756;28;20500;-73
2021/07/18 12:34:32;;;;;;;11.40;6.87;;;26.90;55.00;;;;;;4991205;28;20930;-74
2021/07/18 12:37:08;;;;;;;14.03;7.07;;;27.30;53.80;;;;;;4980501;28;21086;-72
2021/07/18 12:39:45;;;;;;;12.10;7.30;;;27.60;52.60;;;;;;4983183;28;20421;-75
2021/07/18 12:42:18;;;;;;;18.63;7.90;;;27.80;53.40;;;;;;4988621;28;20426;-74
2021/07/18 12:44:50;;;;;;;13.33;7.83;;;28.10;52.80;;;;;;4983295;28;20472;-73
2021/07/18 12:47:36;;;;;;;14.20;7.67;;;28.10;52.40;;;;;;4990495;28;20425;-73